createdAt,value
2023-02-18T00:00:08.451Z,0.00
2023-02-18T00:01:09.368Z,0.00
2023-02-18T00:02:10.312Z,0.00
2023-02-18T00:03:11.216Z,0.00
2023-02-18T00:04:12.061Z,0.00
2023-02-18T00:05:12.958Z,0.00
2023-02-18T00:06:13.860Z,0.00
2023-02-18T00:07:14.748Z,0.00
2023-02-18T00:08:15.680Z,0.00
2023-02-18T00:09:16.581Z,0.00
2023-02-18T00:10:17.485Z,0.00
2023-02-18T00:11:18.392Z,0.00
2023-02-18T00:12:19.271Z,0.00
2023-02-18T00:13:20.154Z,0.00
2023-02-18T00:14:21.060Z,0.00
2023-02-18T00:15:21.959Z,0.00
2023-02-18T00:16:22.894Z,0.00
2023-02-18T00:17:23.795Z,0.00
2023-02-18T00:18:24.711Z,0.00
2023-02-18T00:19:25.598Z,0.00
2023-02-18T00:20:26.523Z,0.00
2023-02-18T00:21:27.477Z,0.00
2023-02-18T00:22:28.366Z,0.00
2023-02-18T00:23:29.265Z,0.00
2023-02-18T00:24:30.170Z,0.00
2023-02-18T00:25:31.122Z,0.00
2023-02-18T00:26:32.030Z,0.00
2023-02-18T00:27:32.901Z,0.00
2023-02-18T00:28:33.825Z,0.00
2023-02-18T00:29:34.678Z,0.00
2023-02-18T00:30:35.617Z,0.00
2023-02-18T00:31:36.707Z,0.00
2023-02-18T00:32:37.096Z,0.00
2023-02-18T00:33:38.031Z,0.00
2023-02-18T00:34:38.893Z,0.00
2023-02-18T00:35:39.817Z,0.00
2023-02-18T00:36:40.692Z,0.00
2023-02-18T00:37:41.577Z,0.00
2023-02-18T00:38:42.472Z,0.00
2023-02-18T00:39:43.354Z,0.00
2023-02-18T00:40:44.255Z,0.00
2023-02-18T00:41:45.144Z,0.00
2023-02-18T00:42:46.027Z,0.00
2023-02-18T00:43:46.910Z,0.00
2023-02-18T00:44:47.820Z,0.00
2023-02-18T00:45:48.692Z,0.00
2023-02-18T00:46:49.684Z,0.00
2023-02-18T00:47:50.078Z,0.00
2023-02-18T00:48:50.970Z,0.00
2023-02-18T00:49:51.858Z,0.00
2023-02-18T00:50:52.741Z,0.00
2023-02-18T00:51:53.652Z,0.00
2023-02-18T00:52:54.540Z,0.00
2023-02-18T00:53:55.418Z,0.00
2023-02-18T00:54:56.326Z,0.00
2023-02-18T00:55:57.331Z,0.00
2023-02-18T00:56:58.217Z,0.00
2023-02-18T00:57:59.140Z,0.00
2023-02-18T00:59:00.020Z,0.00
2023-02-18T01:00:00.959Z,0.00
2023-02-18T01:01:01.849Z,0.00
2023-02-18T01:02:02.743Z,0.00
2023-02-18T01:03:03.652Z,0.00
2023-02-18T01:04:04.574Z,0.00
2023-02-18T01:05:05.546Z,0.00
2023-02-18T01:06:06.683Z,0.00
2023-02-18T01:07:07.158Z,0.00
2023-02-18T01:08:08.037Z,0.00
2023-02-18T01:09:08.929Z,0.00
2023-02-18T01:10:09.845Z,0.00
2023-02-18T01:11:10.746Z,0.00
2023-02-18T01:12:11.640Z,0.00
2023-02-18T01:13:12.556Z,0.00
2023-02-18T01:14:13.468Z,0.00
2023-02-18T01:15:14.376Z,0.00
2023-02-18T01:16:15.375Z,0.00
2023-02-18T01:17:16.298Z,0.00
2023-02-18T01:18:17.193Z,0.00
2023-02-18T01:19:18.050Z,0.00
2023-02-18T01:20:18.994Z,0.00
2023-02-18T01:21:19.885Z,0.00
2023-02-18T01:22:20.815Z,0.00
2023-02-18T01:23:21.698Z,0.00
2023-02-18T01:24:22.606Z,0.00
2023-02-18T01:25:23.469Z,0.00
2023-02-18T01:26:24.386Z,0.00
2023-02-18T01:27:25.287Z,0.00
2023-02-18T01:28:26.186Z,0.00
2023-02-18T01:29:27.073Z,0.00
2023-02-18T01:30:28.066Z,0.00
2023-02-18T01:31:29.019Z,0.00
2023-02-18T01:32:29.914Z,0.00
2023-02-18T01:33:30.801Z,0.00
2023-02-18T01:34:31.722Z,0.00
2023-02-18T01:35:32.623Z,0.00
2023-02-18T01:36:33.509Z,0.00
2023-02-18T01:37:34.424Z,0.00
2023-02-18T01:38:35.365Z,0.00
2023-02-18T01:39:36.241Z,0.00
2023-02-18T01:40:37.128Z,0.00
2023-02-18T01:41:38.024Z,0.00
2023-02-18T01:42:38.907Z,0.00
2023-02-18T01:43:39.784Z,0.00
2023-02-18T01:44:40.671Z,0.00
2023-02-18T01:45:41.554Z,0.00
2023-02-18T01:46:42.471Z,0.00
2023-02-18T01:47:43.318Z,0.00
2023-02-18T01:48:44.220Z,0.00
2023-02-18T01:49:45.084Z,0.00
2023-02-18T01:50:45.957Z,0.00
2023-02-18T01:51:46.830Z,0.00
2023-02-18T01:52:47.728Z,0.00
2023-02-18T01:53:48.608Z,0.00
2023-02-18T01:54:49.493Z,0.00
2023-02-18T01:55:50.381Z,0.00
2023-02-18T01:56:51.285Z,0.00
2023-02-18T01:57:52.132Z,0.00
2023-02-18T01:58:53.017Z,0.00
2023-02-18T01:59:53.899Z,0.00
2023-02-18T02:00:54.853Z,0.00
2023-02-18T02:01:55.802Z,0.00
2023-02-18T02:02:56.658Z,0.00
2023-02-18T02:03:57.536Z,0.00
2023-02-18T02:04:58.429Z,0.00
2023-02-18T02:05:59.295Z,0.00
2023-02-18T02:07:00.184Z,0.00
2023-02-18T02:08:01.069Z,0.00
2023-02-18T02:09:01.990Z,0.00
2023-02-18T02:10:02.827Z,0.00
2023-02-18T02:11:03.705Z,0.00
2023-02-18T02:12:04.614Z,0.00
2023-02-18T02:13:05.492Z,0.00
2023-02-18T02:14:06.364Z,0.00
2023-02-18T02:15:07.242Z,0.00
2023-02-18T02:16:08.482Z,0.00
2023-02-18T02:17:09.016Z,0.00
2023-02-18T02:18:09.906Z,0.00
2023-02-18T02:19:10.802Z,0.00
2023-02-18T02:20:11.673Z,0.00
2023-02-18T02:21:12.561Z,0.00
2023-02-18T02:22:13.440Z,0.00
2023-02-18T02:23:14.337Z,0.00
2023-02-18T02:24:15.216Z,0.00
2023-02-18T02:25:16.099Z,0.00
2023-02-18T02:26:16.971Z,0.00
2023-02-18T02:27:17.880Z,0.00
2023-02-18T02:28:18.751Z,0.00
2023-02-18T02:29:19.629Z,0.00
2023-02-18T02:30:20.581Z,0.00
2023-02-18T02:31:21.490Z,0.00
2023-02-18T02:32:22.347Z,0.00
2023-02-18T02:33:23.227Z,0.00
2023-02-18T02:34:24.108Z,0.00
2023-02-18T02:35:24.984Z,0.00
2023-02-18T02:36:25.873Z,0.00
2023-02-18T02:37:26.771Z,0.00
2023-02-18T02:38:27.642Z,0.00
2023-02-18T02:39:28.515Z,0.00
2023-02-18T02:40:29.398Z,0.00
2023-02-18T02:41:30.272Z,0.00
2023-02-18T02:42:31.179Z,0.00
2023-02-18T02:43:32.046Z,0.00
2023-02-18T02:44:32.937Z,0.00
2023-02-18T02:45:33.844Z,0.00
2023-02-18T02:46:34.705Z,0.00
2023-02-18T02:47:35.586Z,0.00
2023-02-18T02:48:36.488Z,0.00
2023-02-18T02:49:37.360Z,0.00
2023-02-18T02:50:38.241Z,0.00
2023-02-18T02:51:39.173Z,0.00
2023-02-18T02:52:40.038Z,0.00
2023-02-18T02:53:40.940Z,0.00
2023-02-18T02:54:41.862Z,0.00
2023-02-18T02:55:42.707Z,0.00
2023-02-18T02:56:43.603Z,0.00
2023-02-18T02:57:44.525Z,0.00
2023-02-18T02:58:45.376Z,0.00
2023-02-18T02:59:46.257Z,0.00
2023-02-18T03:00:47.194Z,0.00
2023-02-18T03:01:48.042Z,0.00
2023-02-18T03:02:48.949Z,0.00
2023-02-18T03:03:49.822Z,0.00
2023-02-18T03:04:50.706Z,0.00
2023-02-18T03:05:51.570Z,0.00
2023-02-18T03:06:52.453Z,0.00
2023-02-18T03:07:53.336Z,0.00
2023-02-18T03:08:54.258Z,0.00
2023-02-18T03:09:55.130Z,0.00
2023-02-18T03:10:56.014Z,0.00
2023-02-18T03:11:56.886Z,0.00
2023-02-18T03:12:57.788Z,0.00
2023-02-18T03:13:58.650Z,0.00
2023-02-18T03:14:59.542Z,0.00
2023-02-18T03:16:00.439Z,0.00
2023-02-18T03:17:01.310Z,0.00
2023-02-18T03:18:02.211Z,0.00
2023-02-18T03:19:03.086Z,0.00
2023-02-18T03:20:03.960Z,0.00
2023-02-18T03:21:04.843Z,0.00
2023-02-18T03:22:05.726Z,0.00
2023-02-18T03:23:06.608Z,0.00
2023-02-18T03:24:07.521Z,0.00
2023-02-18T03:25:08.385Z,0.00
2023-02-18T03:26:09.784Z,0.00
2023-02-18T03:27:10.262Z,0.00
2023-02-18T03:28:11.136Z,0.00
2023-02-18T03:29:12.020Z,0.00
2023-02-18T03:30:12.970Z,0.00
2023-02-18T03:31:13.865Z,0.00
2023-02-18T03:32:14.708Z,0.00
2023-02-18T03:33:15.586Z,0.00
2023-02-18T03:34:16.467Z,0.00
2023-02-18T03:35:17.358Z,0.00
2023-02-18T03:36:18.246Z,0.00
2023-02-18T03:37:19.169Z,0.00
2023-02-18T03:38:20.066Z,0.00
2023-02-18T03:39:20.966Z,0.00
2023-02-18T03:40:21.858Z,0.00
2023-02-18T03:41:22.759Z,0.00
2023-02-18T03:42:23.635Z,0.00
2023-02-18T03:43:24.554Z,0.00
2023-02-18T03:44:25.437Z,0.00
2023-02-18T03:45:26.382Z,0.00
2023-02-18T03:46:27.249Z,0.00
2023-02-18T03:47:28.137Z,0.00
2023-02-18T03:48:29.005Z,0.00
2023-02-18T03:49:29.910Z,0.00
2023-02-18T03:50:30.786Z,0.00
2023-02-18T03:51:31.666Z,0.00
2023-02-18T03:52:32.565Z,0.00
2023-02-18T03:53:33.448Z,0.00
2023-02-18T03:54:34.334Z,0.00
2023-02-18T03:55:35.208Z,0.00
2023-02-18T03:56:36.085Z,0.00
2023-02-18T03:57:36.961Z,0.00
2023-02-18T03:58:37.865Z,0.00
2023-02-18T03:59:38.732Z,0.00
2023-02-18T04:00:39.608Z,0.00
2023-02-18T04:01:40.508Z,0.00
2023-02-18T04:02:41.370Z,0.00
2023-02-18T04:03:42.246Z,0.00
2023-02-18T04:04:43.139Z,0.00
2023-02-18T04:05:44.022Z,0.00
2023-02-18T04:06:44.919Z,0.00
2023-02-18T04:07:45.797Z,0.00
2023-02-18T04:08:46.683Z,0.00
2023-02-18T04:09:47.568Z,0.00
2023-02-18T04:10:48.451Z,0.00
2023-02-18T04:11:49.337Z,0.00
2023-02-18T04:12:50.224Z,0.00
2023-02-18T04:13:51.122Z,0.00
2023-02-18T04:14:52.001Z,0.00
2023-02-18T04:15:52.882Z,0.00
2023-02-18T04:16:53.768Z,0.00
2023-02-18T04:17:54.639Z,0.00
2023-02-18T04:18:55.508Z,0.00
2023-02-18T04:19:56.399Z,0.00
2023-02-18T04:20:57.270Z,0.00
2023-02-18T04:21:58.171Z,0.00
2023-02-18T04:22:59.044Z,0.00
2023-02-18T04:23:59.925Z,0.00
2023-02-18T04:25:00.844Z,0.00
2023-02-18T04:26:01.736Z,0.00
2023-02-18T04:27:02.639Z,0.00
2023-02-18T04:28:03.540Z,0.00
2023-02-18T04:29:04.457Z,0.00
2023-02-18T04:30:05.434Z,0.00
2023-02-18T04:31:06.434Z,0.00
2023-02-18T04:32:06.879Z,0.00
2023-02-18T04:33:07.745Z,0.00
2023-02-18T04:34:08.615Z,0.00
2023-02-18T04:35:09.510Z,0.00
2023-02-18T04:36:10.655Z,0.00
2023-02-18T04:37:11.152Z,0.00
2023-02-18T04:38:12.088Z,0.00
2023-02-18T04:39:12.921Z,0.00
2023-02-18T04:40:13.834Z,0.00
2023-02-18T04:41:14.707Z,0.00
2023-02-18T04:42:15.584Z,0.00
2023-02-18T04:43:16.468Z,0.00
2023-02-18T04:44:17.388Z,0.00
2023-02-18T04:45:18.244Z,0.00
2023-02-18T04:46:19.178Z,0.00
2023-02-18T04:47:20.035Z,0.00
2023-02-18T04:48:20.939Z,0.00
2023-02-18T04:49:21.807Z,0.00
2023-02-18T04:50:22.712Z,0.00
2023-02-18T04:51:23.610Z,0.00
2023-02-18T04:52:24.491Z,0.00
2023-02-18T04:53:25.409Z,0.00
2023-02-18T04:54:26.276Z,0.00
2023-02-18T04:55:27.193Z,0.00
2023-02-18T04:56:28.074Z,0.00
2023-02-18T04:57:28.956Z,0.00
2023-02-18T04:58:29.835Z,0.00
2023-02-18T04:59:30.724Z,0.00
2023-02-18T05:00:31.598Z,0.00
2023-02-18T05:01:32.579Z,0.00
2023-02-18T05:02:33.451Z,0.00
2023-02-18T05:03:34.335Z,0.00
2023-02-18T05:04:35.248Z,0.00
2023-02-18T05:05:36.126Z,0.00
2023-02-18T05:06:36.999Z,0.00
2023-02-18T05:07:37.883Z,0.00
2023-02-18T05:08:38.764Z,0.00
2023-02-18T05:09:39.654Z,0.00
2023-02-18T05:10:40.553Z,0.00
2023-02-18T05:11:41.422Z,0.00
2023-02-18T05:12:42.316Z,0.00
2023-02-18T05:13:43.200Z,0.00
2023-02-18T05:14:44.109Z,0.00
2023-02-18T05:15:45.000Z,0.00
2023-02-18T05:16:45.892Z,0.00
2023-02-18T05:17:46.750Z,0.00
2023-02-18T05:18:47.626Z,0.00
2023-02-18T05:19:48.513Z,0.00
2023-02-18T05:20:49.424Z,0.00
2023-02-18T05:21:50.292Z,0.00
2023-02-18T05:22:51.171Z,0.00
2023-02-18T05:23:52.057Z,0.00
2023-02-18T05:24:52.949Z,0.00
2023-02-18T05:25:53.830Z,0.00
2023-02-18T05:26:54.718Z,0.00
2023-02-18T05:27:55.605Z,0.00
2023-02-18T05:28:56.483Z,0.00
2023-02-18T05:29:57.417Z,0.00
2023-02-18T05:30:58.274Z,0.00
2023-02-18T05:31:59.227Z,0.00
2023-02-18T05:33:00.083Z,0.00
2023-02-18T05:34:00.954Z,0.00
2023-02-18T05:35:01.818Z,0.00
2023-02-18T05:36:02.732Z,0.00
2023-02-18T05:37:03.600Z,0.00
2023-02-18T05:38:04.478Z,0.00
2023-02-18T05:39:05.383Z,0.00
2023-02-18T05:40:06.257Z,0.00
2023-02-18T05:41:07.219Z,0.00
2023-02-18T05:42:08.070Z,0.00
2023-02-18T05:43:08.950Z,0.00
2023-02-18T05:44:09.835Z,0.00
2023-02-18T05:45:10.761Z,0.00
2023-02-18T05:46:11.792Z,0.00
2023-02-18T05:47:12.173Z,0.00
2023-02-18T05:48:13.046Z,0.00
2023-02-18T05:49:13.945Z,0.00
2023-02-18T05:50:14.806Z,0.00
2023-02-18T05:51:15.758Z,0.00
2023-02-18T05:52:16.616Z,0.00
2023-02-18T05:53:17.779Z,0.00
2023-02-18T05:54:18.128Z,0.00
2023-02-18T05:55:18.992Z,0.00
2023-02-18T05:56:19.885Z,0.00
2023-02-18T05:57:20.695Z,1.00
2023-02-18T05:58:21.585Z,0.00
2023-02-18T05:59:22.419Z,1.00
2023-02-18T06:00:23.265Z,1.00
2023-02-18T06:01:24.135Z,0.00
2023-02-18T06:02:25.044Z,2.00
2023-02-18T06:03:25.821Z,1.00
2023-02-18T06:04:26.662Z,1.00
2023-02-18T06:05:27.568Z,0.00
2023-02-18T06:06:28.383Z,2.00
2023-02-18T06:07:29.210Z,1.00
2023-02-18T06:08:30.082Z,1.00
2023-02-18T06:09:30.870Z,3.00
2023-02-18T06:10:31.705Z,6.00
2023-02-18T06:11:32.558Z,6.00
2023-02-18T06:12:33.373Z,8.00
2023-02-18T06:13:34.205Z,7.00
2023-02-18T06:14:35.034Z,7.00
2023-02-18T06:15:35.885Z,8.00
2023-02-18T06:16:36.713Z,2.00
2023-02-18T06:17:37.576Z,6.00
2023-02-18T06:18:38.369Z,10.00
2023-02-18T06:19:39.195Z,11.00
2023-02-18T06:20:40.035Z,13.00
2023-02-18T06:21:40.867Z,11.00
2023-02-18T06:22:41.698Z,12.00
2023-02-18T06:23:42.574Z,20.00
2023-02-18T06:24:43.377Z,20.00
2023-02-18T06:25:44.217Z,24.00
2023-02-18T06:26:45.050Z,23.00
2023-02-18T06:27:45.867Z,27.00
2023-02-18T06:28:46.700Z,29.00
2023-02-18T06:29:47.532Z,29.00
2023-02-18T06:30:48.381Z,32.00
2023-02-18T06:31:49.276Z,35.00
2023-02-18T06:32:50.077Z,36.00
2023-02-18T06:33:50.901Z,41.00
2023-02-18T06:34:51.737Z,40.00
2023-02-18T06:35:52.583Z,44.00
2023-02-18T06:36:53.402Z,46.00
2023-02-18T06:37:54.223Z,49.00
2023-02-18T06:38:55.059Z,52.00
2023-02-18T06:39:55.870Z,53.00
2023-02-18T06:40:56.746Z,56.00
2023-02-18T06:41:57.550Z,58.00
2023-02-18T06:42:58.381Z,60.00
2023-02-18T06:43:59.241Z,64.00
2023-02-18T06:45:00.037Z,67.00
2023-02-18T06:46:00.895Z,72.00
2023-02-18T06:47:01.704Z,72.00
2023-02-18T06:48:02.537Z,73.00
2023-02-18T06:49:03.362Z,80.00
2023-02-18T06:50:04.190Z,82.00
2023-02-18T06:51:05.027Z,85.00
2023-02-18T06:52:05.891Z,89.00
2023-02-18T06:53:06.708Z,90.00
2023-02-18T06:54:07.531Z,92.00
2023-02-18T06:55:08.366Z,96.00
2023-02-18T06:56:09.560Z,99.00
2023-02-18T06:57:10.037Z,103.00
2023-02-18T06:58:10.850Z,106.00
2023-02-18T06:59:11.681Z,108.00
2023-02-18T07:00:12.512Z,110.00
2023-02-18T07:01:13.428Z,116.00
2023-02-18T07:02:14.243Z,120.00
2023-02-18T07:03:15.030Z,122.00
2023-02-18T07:04:15.862Z,130.00
2023-02-18T07:05:16.690Z,137.00
2023-02-18T07:06:17.522Z,141.00
2023-02-18T07:07:18.356Z,141.00
2023-02-18T07:08:19.185Z,153.00
2023-02-18T07:09:20.014Z,172.00
2023-02-18T07:10:20.877Z,176.00
2023-02-18T07:11:21.696Z,186.00
2023-02-18T07:12:22.520Z,191.00
2023-02-18T07:13:23.359Z,194.00
2023-02-18T07:14:24.188Z,194.00
2023-02-18T07:15:25.034Z,197.00
2023-02-18T07:16:26.005Z,192.00
2023-02-18T07:17:26.794Z,186.00
2023-02-18T07:18:27.624Z,180.00
2023-02-18T07:19:28.440Z,185.00
2023-02-18T07:20:29.274Z,189.00
2023-02-18T07:21:30.105Z,194.00
2023-02-18T07:22:30.929Z,201.00
2023-02-18T07:23:31.760Z,201.00
2023-02-18T07:24:32.588Z,205.00
2023-02-18T07:25:33.416Z,227.00
2023-02-18T07:26:34.262Z,236.00
2023-02-18T07:27:35.120Z,246.00
2023-02-18T07:28:35.936Z,257.00
2023-02-18T07:29:36.752Z,220.00
2023-02-18T07:30:37.607Z,209.00
2023-02-18T07:31:38.515Z,331.00
2023-02-18T07:32:39.351Z,609.00
2023-02-18T07:33:40.203Z,1209.00
2023-02-18T07:34:41.052Z,1380.00
2023-02-18T07:35:41.850Z,1027.00
2023-02-18T07:36:42.691Z,932.00
2023-02-18T07:37:43.519Z,2225.00
2023-02-18T07:38:44.348Z,2708.00
2023-02-18T07:39:45.183Z,3779.00
2023-02-18T07:40:45.995Z,1471.00
2023-02-18T07:41:46.845Z,771.00
2023-02-18T07:42:47.672Z,616.00
2023-02-18T07:43:48.500Z,751.00
2023-02-18T07:44:49.334Z,759.00
2023-02-18T07:45:50.242Z,444.00
2023-02-18T07:46:51.056Z,242.00
2023-02-18T07:47:51.864Z,217.00
2023-02-18T07:48:52.686Z,105.00
2023-02-18T07:49:53.513Z,429.00
2023-02-18T07:50:54.341Z,399.00
2023-02-18T07:51:55.177Z,335.00
2023-02-18T07:52:56.009Z,316.00
2023-02-18T07:53:56.846Z,303.00
2023-02-18T07:54:57.673Z,303.00
2023-02-18T07:55:58.496Z,222.00
2023-02-18T07:56:59.326Z,301.00
2023-02-18T07:58:00.166Z,362.00
2023-02-18T07:59:00.985Z,315.00
2023-02-18T08:00:01.814Z,398.00
2023-02-18T08:01:02.637Z,458.00
2023-02-18T08:02:03.607Z,441.00
2023-02-18T08:03:04.385Z,475.00
2023-02-18T08:04:05.288Z,611.00
2023-02-18T08:05:06.085Z,523.00
2023-02-18T08:06:07.240Z,439.00
2023-02-18T08:07:07.720Z,467.00
2023-02-18T08:08:08.541Z,365.00
2023-02-18T08:09:09.377Z,637.00
2023-02-18T08:10:10.211Z,482.00
2023-02-18T08:11:18.941Z,583.00
2023-02-18T08:12:12.748Z,413.00
2023-02-18T08:13:12.576Z,694.00
2023-02-18T08:14:13.404Z,1395.00
2023-02-18T08:15:14.223Z,3088.00
2023-02-18T08:16:15.215Z,8457.00
2023-02-18T08:17:15.589Z,11677.00
2023-02-18T08:18:16.394Z,13449.00
2023-02-18T08:19:17.214Z,13302.00
2023-02-18T08:20:18.048Z,12864.00
2023-02-18T08:21:18.875Z,13509.00
2023-02-18T08:22:19.715Z,16843.00
2023-02-18T08:23:20.557Z,16160.00
2023-02-18T08:24:21.365Z,14034.00
2023-02-18T08:25:29.372Z,12846.00
2023-02-18T08:26:23.912Z,14454.00
2023-02-18T08:27:23.728Z,15307.00
2023-02-18T08:28:24.562Z,15159.00
2023-02-18T08:29:25.393Z,15012.00
2023-02-18T08:30:26.449Z,13749.00
2023-02-18T08:31:26.985Z,14746.00
2023-02-18T08:32:27.442Z,16287.00
2023-02-18T08:33:28.200Z,16930.00
2023-02-18T08:34:29.031Z,15701.00
2023-02-18T08:35:29.865Z,16252.00
2023-02-18T08:36:30.678Z,15971.00
2023-02-18T08:37:31.519Z,18659.00
2023-02-18T08:38:33.245Z,21662.00
2023-02-18T08:39:33.053Z,18198.00
2023-02-18T08:40:33.881Z,20070.00
2023-02-18T08:41:34.704Z,18191.00
2023-02-18T08:42:35.693Z,20251.00
2023-02-18T08:43:36.481Z,21666.00
2023-02-18T08:44:37.309Z,18905.00
2023-02-18T08:45:38.159Z,16306.00
2023-02-18T08:46:39.027Z,16464.00
2023-02-18T08:48:17.284Z,19875.00
2023-02-18T08:48:41.642Z,18721.00
2023-02-18T08:49:41.401Z,20890.00
2023-02-18T08:50:42.232Z,20609.00
2023-02-18T08:51:43.042Z,21183.00
2023-02-18T08:52:43.884Z,12363.00
2023-02-18T08:53:44.704Z,2996.00
2023-02-18T08:54:45.537Z,612.00
2023-02-18T08:55:46.397Z,469.00
2023-02-18T08:56:47.196Z,452.00
2023-02-18T08:57:48.032Z,411.00
2023-02-18T08:58:48.856Z,395.00
2023-02-18T08:59:49.675Z,382.00
2023-02-18T09:00:50.504Z,381.00
2023-02-18T09:01:51.331Z,366.00
2023-02-18T09:02:52.206Z,376.00
2023-02-18T09:03:53.052Z,375.00
2023-02-18T09:04:53.847Z,369.00
2023-02-18T09:05:54.667Z,383.00
2023-02-18T09:06:55.496Z,372.00
2023-02-18T09:07:56.324Z,364.00
2023-02-18T09:08:57.169Z,369.00
2023-02-18T09:09:57.982Z,378.00
2023-02-18T09:10:58.803Z,402.00
2023-02-18T09:11:59.622Z,317.00
2023-02-18T09:13:00.463Z,378.00
2023-02-18T09:14:01.280Z,369.00
2023-02-18T09:15:02.118Z,355.00
2023-02-18T09:16:03.000Z,360.00
2023-02-18T09:17:03.774Z,354.00
2023-02-18T09:18:04.635Z,341.00
2023-02-18T09:19:05.448Z,346.00
2023-02-18T09:20:06.262Z,340.00
2023-02-18T09:21:07.525Z,334.00
2023-02-18T09:22:07.980Z,340.00
2023-02-18T09:23:08.820Z,328.00
2023-02-18T09:24:09.642Z,323.00
2023-02-18T09:25:10.477Z,320.00
2023-02-18T09:26:11.286Z,321.00
2023-02-18T09:27:12.123Z,325.00
2023-02-18T09:28:12.957Z,335.00
2023-02-18T09:29:13.785Z,339.00
2023-02-18T09:30:14.676Z,335.00
2023-02-18T09:31:15.594Z,347.00
2023-02-18T09:32:28.827Z,328.00
2023-02-18T09:33:18.190Z,347.00
2023-02-18T09:34:17.975Z,336.00
2023-02-18T09:35:18.804Z,361.00
2023-02-18T09:36:19.623Z,328.00
2023-02-18T09:37:20.454Z,331.00
2023-02-18T09:38:21.298Z,348.00
2023-02-18T09:39:22.135Z,334.00
2023-02-18T09:40:22.954Z,346.00
2023-02-18T09:41:23.782Z,319.00
2023-02-18T09:42:24.618Z,325.00
2023-02-18T09:43:25.452Z,325.00
2023-02-18T09:44:26.282Z,363.00
2023-02-18T09:45:27.112Z,277.00
2023-02-18T09:46:27.951Z,316.00
2023-02-18T09:47:28.783Z,319.00
2023-02-18T09:48:29.652Z,337.00
2023-02-18T09:49:30.439Z,335.00
2023-02-18T09:50:31.257Z,323.00
2023-02-18T09:51:32.085Z,271.00
2023-02-18T09:52:32.907Z,291.00
2023-02-18T09:53:33.775Z,307.00
2023-02-18T09:54:34.586Z,343.00
2023-02-18T09:55:35.420Z,326.00
2023-02-18T09:56:36.236Z,285.00
2023-02-18T09:57:37.062Z,305.00
2023-02-18T09:58:37.909Z,314.00
2023-02-18T09:59:38.755Z,325.00
2023-02-18T10:00:39.573Z,316.00
2023-02-18T10:01:40.440Z,339.00
2023-02-18T10:02:41.255Z,351.00
2023-02-18T10:03:42.121Z,310.00
2023-02-18T10:04:42.914Z,360.00
2023-02-18T10:05:43.758Z,507.00
2023-02-18T10:06:44.562Z,293.00
2023-02-18T10:07:45.392Z,392.00
2023-02-18T10:08:46.250Z,319.00
2023-02-18T10:09:47.050Z,260.00
2023-02-18T10:10:47.878Z,271.00
2023-02-18T10:11:48.705Z,156.00
2023-02-18T10:12:49.545Z,337.00
2023-02-18T10:13:50.362Z,216.00
2023-02-18T10:14:51.187Z,371.00
2023-02-18T10:15:52.088Z,398.00
2023-02-18T10:16:52.887Z,172.00
2023-02-18T10:17:53.708Z,376.00
2023-02-18T10:18:54.568Z,183.00
2023-02-18T10:19:55.388Z,421.00
2023-02-18T10:20:56.204Z,342.00
2023-02-18T10:21:57.045Z,179.00
2023-02-18T10:22:57.862Z,440.00
2023-02-18T10:23:58.705Z,268.00
2023-02-18T10:24:59.527Z,244.00
2023-02-18T10:26:00.368Z,333.00
2023-02-18T10:27:01.186Z,446.00
2023-02-18T10:28:02.023Z,328.00
2023-02-18T10:29:02.841Z,250.00
2023-02-18T10:30:03.747Z,416.00
2023-02-18T10:31:04.591Z,377.00
2023-02-18T10:32:05.424Z,268.00
2023-02-18T10:33:06.220Z,307.00
2023-02-18T10:34:07.090Z,276.00
2023-02-18T10:35:07.889Z,254.00
2023-02-18T10:36:08.713Z,244.00
2023-02-18T10:37:09.525Z,278.00
2023-02-18T10:38:10.378Z,235.00
2023-02-18T10:39:11.193Z,305.00
2023-02-18T10:40:12.017Z,220.00
2023-02-18T10:41:12.836Z,187.00
2023-02-18T10:42:13.673Z,259.00
2023-02-18T10:43:14.486Z,550.00
2023-02-18T10:44:15.337Z,112.00
2023-02-18T10:45:16.147Z,445.00
2023-02-18T10:46:17.005Z,225.00
2023-02-18T10:47:17.801Z,248.00
2023-02-18T10:48:18.632Z,203.00
2023-02-18T10:49:19.483Z,95.00
2023-02-18T10:50:20.294Z,227.00
2023-02-18T10:51:21.111Z,210.00
2023-02-18T10:52:21.932Z,168.00
2023-02-18T10:53:22.759Z,310.00
2023-02-18T10:54:23.589Z,307.00
2023-02-18T10:55:24.417Z,112.00
2023-02-18T10:56:25.320Z,309.00
2023-02-18T10:57:26.108Z,167.00
2023-02-18T10:58:26.940Z,132.00
2023-02-18T10:59:27.776Z,229.00
2023-02-18T11:00:28.595Z,240.00
2023-02-18T11:01:29.512Z,243.00
2023-02-18T11:02:30.301Z,286.00
2023-02-18T11:03:31.131Z,208.00
2023-02-18T11:04:32.024Z,126.00
2023-02-18T11:05:32.805Z,199.00
2023-02-18T11:06:33.634Z,206.00
2023-02-18T11:07:34.455Z,197.00
2023-02-18T11:08:35.273Z,191.00
2023-02-18T11:09:36.122Z,255.00
2023-02-18T11:10:36.944Z,295.00
2023-02-18T11:11:37.779Z,227.00
2023-02-18T11:12:38.596Z,164.00
2023-02-18T11:13:39.421Z,115.00
2023-02-18T11:14:40.261Z,182.00
2023-02-18T11:15:41.094Z,162.00
2023-02-18T11:16:41.924Z,243.00
2023-02-18T11:17:42.742Z,126.00
2023-02-18T11:18:43.567Z,218.00
2023-02-18T11:19:44.524Z,196.00
2023-02-18T11:20:45.278Z,181.00
2023-02-18T11:21:46.104Z,219.00
2023-02-18T11:22:46.935Z,205.00
2023-02-18T11:23:47.754Z,187.00
2023-02-18T11:24:48.733Z,143.00
2023-02-18T11:25:49.527Z,239.00
2023-02-18T11:26:50.359Z,234.00
2023-02-18T11:27:51.191Z,121.00
2023-02-18T11:28:52.036Z,230.00
2023-02-18T11:29:52.864Z,174.00
2023-02-18T11:30:53.687Z,292.00
2023-02-18T11:31:54.598Z,174.00
2023-02-18T11:32:55.379Z,138.00
2023-02-18T11:33:56.198Z,143.00
2023-02-18T11:34:57.066Z,249.00
2023-02-18T11:35:57.875Z,130.00
2023-02-18T11:36:58.702Z,219.00
2023-02-18T11:37:59.541Z,296.00
2023-02-18T11:39:00.362Z,125.00
2023-02-18T11:40:01.201Z,217.00
2023-02-18T11:41:02.040Z,128.00
2023-02-18T11:42:02.853Z,211.00
2023-02-18T11:43:03.681Z,348.00
2023-02-18T11:44:04.512Z,114.00
2023-02-18T11:45:05.837Z,212.00
2023-02-18T11:46:06.122Z,213.00
2023-02-18T11:47:06.963Z,160.00
2023-02-18T11:48:07.784Z,197.00
2023-02-18T11:49:08.663Z,266.00
2023-02-18T11:50:09.517Z,149.00
2023-02-18T11:51:10.729Z,176.00
2023-02-18T11:52:11.154Z,186.00
2023-02-18T11:53:11.973Z,206.00
2023-02-18T11:54:12.801Z,214.00
2023-02-18T11:55:13.632Z,197.00
2023-02-18T11:56:14.463Z,215.00
2023-02-18T11:57:15.280Z,181.00
2023-02-18T11:58:16.141Z,192.00
2023-02-18T11:59:16.937Z,233.00
2023-02-18T12:00:17.776Z,209.00
2023-02-18T12:01:18.607Z,207.00
2023-02-18T12:02:19.463Z,225.00
2023-02-18T12:03:20.263Z,182.00
2023-02-18T12:04:21.097Z,210.00
2023-02-18T12:05:22.032Z,220.00
2023-02-18T12:06:22.836Z,228.00
2023-02-18T12:07:23.658Z,223.00
2023-02-18T12:08:24.486Z,185.00
2023-02-18T12:09:25.041Z,247.00
2023-02-18T12:10:25.879Z,229.00
2023-02-18T12:11:26.709Z,214.00
2023-02-18T12:12:27.552Z,233.00
2023-02-18T12:13:28.378Z,281.00
2023-02-18T12:14:29.191Z,222.00
2023-02-18T12:15:30.123Z,206.00
2023-02-18T12:16:31.000Z,239.00
2023-02-18T12:17:31.478Z,243.00
2023-02-18T12:18:32.348Z,223.00
2023-02-18T12:19:33.158Z,238.00
2023-02-18T12:20:34.012Z,170.00
2023-02-18T12:21:34.815Z,248.00
2023-02-18T12:22:35.644Z,225.00
2023-02-18T12:23:36.464Z,238.00
2023-02-18T12:24:37.294Z,328.00
2023-02-18T12:25:38.121Z,295.00
2023-02-18T12:26:38.970Z,300.00
2023-02-18T12:27:39.781Z,173.00
2023-02-18T12:28:40.611Z,146.00
2023-02-18T12:29:41.430Z,263.00
2023-02-18T12:30:42.275Z,186.00
2023-02-18T12:31:43.169Z,298.00
2023-02-18T12:32:44.006Z,295.00
2023-02-18T12:33:44.811Z,270.00
2023-02-18T12:34:45.634Z,324.00
2023-02-18T12:35:46.493Z,204.00
2023-02-18T12:36:47.300Z,305.00
2023-02-18T12:37:48.123Z,264.00
2023-02-18T12:38:48.966Z,204.00
2023-02-18T12:39:49.781Z,128.00
2023-02-18T12:40:50.616Z,338.00
2023-02-18T12:41:51.438Z,297.00
2023-02-18T12:42:52.304Z,274.00
2023-02-18T12:43:53.117Z,220.00
2023-02-18T12:44:53.938Z,214.00
2023-02-18T12:45:54.810Z,274.00
2023-02-18T12:46:55.661Z,132.00
2023-02-18T12:47:56.452Z,196.00
2023-02-18T12:48:57.281Z,292.00
2023-02-18T12:49:58.123Z,169.00
2023-02-18T12:50:58.969Z,148.00
2023-02-18T12:51:59.780Z,237.00
2023-02-18T12:53:00.613Z,199.00
2023-02-18T12:54:01.446Z,166.00
2023-02-18T12:55:02.271Z,139.00
2023-02-18T12:56:03.097Z,87.00
2023-02-18T12:57:03.948Z,244.00
2023-02-18T12:58:04.744Z,148.00
2023-02-18T12:59:05.573Z,203.00
2023-02-18T13:00:06.422Z,127.00
2023-02-18T13:01:07.274Z,230.00